aviador You're here:

KWAL Decoded Metar

WALLOPS ISLAND in VA, USA
Report Time2018-06-23 05:54:00
UTC Time2018-06-23 06:09:41
Flight Rules lifr LIFR
Wind100° at 04 kt
W.Decomp.*RWY 10: 3.9 kt HW 0.8 kt RCW
RWY 17: 2.1 kt HW 3.4 kt LCW
RWY 04: 1.3 kt HW 3.8 kt RCW
W.Rank100° ranks 33
Current wind is below 100° avg. (7.2)
Visibility8047 m
Phenomena:Light Rain
Mist
Clouds:Overcast 004 Hf
Ceiling400 ft
Temp23°C (ISA +8)
Dew Point23°C (100% RH)
QNH1010 hPa
Density Alt1,457 ft
Elevation46 ft
Report Wrong Elevation
Raw Report
KWAL 230554Z AUTO 10004KT 5SM -RA BR OVC004 23/23 A2983 RMK AO2
LTG DSNT S RAB36 SLP097 P0001 60001 T02280228 10233 20222
58008=

Extra information for KWAL:More info

Metar Taf Metar & Taf Last 4 Metars F.Rules Stats Wind Profile Meteogram Temp Stats Airport Information Weather charts Add Link Nearby VenuesMetar ALERT Operation Metar Decoded Social comments

AIRNAV info for KWAL